Whitetop, Virginia
Current Conditions -  °F | °C
As of 1:15 AM on Friday 26 Dec 2014 (Local Time) from KGEV Reporting Station
Clear Clear  
Wind Chill:   Ceiling: Unl
Heat Index:   Visibility: 10mi
Dew Point: -5°   Wind: 3mph
Humidity: 72%   Direction: 40°NE
Pressure: 30.2"   Gusts: NA
Location:  36.6°N, 81.63°W
Report Text: KGEV 260615Z AUTO 04003KT 10SM CLR 00/M05 A3020 RMK AO2 T10051049
Loading
Personal Weather Stations






























Interactive Weather Map New forecast layout! Learn more

10-Day Weather Forecast

Advertisements
Track Severe Weather on mobile